PWSweather.com
Personal Weather Stations
Station Observations
OZIERI
Punta Idda, OzieriIT

Punta IddaOzieriIT

Lat: 40.584142, Lon: 9.007657999999992

Elevation: 1483

Station Type: Lacrosse ws2350

Latest ConditionsUpdated 1:04:29 PM GMT+01:01 Friday, Jun 23, 2017
Currently Today's Max Today's Min Today's Average
Temperature 87.4°F30.8°C 87.6°F30.9°C 66.6°F19.2°C 75.0°F23.9°C
Dew Point 50.4°F10.2°C 54.9°F12.7°C 46.4°F8.0°C 50.2°F10.1°C
Winds 4.3 mph NNE6.9 kmh NNE 8.7 mph 14.0 kmh - 2.0 mph 3.2 kmh
Wind Gusts 7.4 mph11.9 kmh 15.4 mph24.8 kmh - -
Humidity 28% 55% 28% 43%
Pressure 30.17 in1021.7 mb 30.19 in1022.4 mb 30.13 in1020.3 mb -
Hour Temp Dew Point Humidity Winds Wind Gusts Pressure Precip Precip Rate Daily Precip Total
01:04 PM 87.4°F30.8°C 50.4°F10.2°C 28% 4.3 mph NNE6.9 kmh NNE 7.4 mph11.9 kmh 30.17 in1021.7 mb 0.00 in0.0 mm 0.00 in0.0 mm 0.00 in0.0 mm
01:02 PM 87.1°F30.6°C 50.0°F10.0°C 28% 4.9 mph 7.9 kmh 9.2 mph14.8 kmh 30.17 in1021.7 mb 0.00 in0.0 mm 0.00 in0.0 mm 0.00 in0.0 mm
12:59 PM 87.1°F30.6°C 50.0°F10.0°C 28% 4.5 mph WNW7.2 kmh WNW 8.5 mph13.7 kmh 30.17 in1021.7 mb 0.00 in0.0 mm 0.00 in0.0 mm 0.00 in0.0 mm
12:57 PM 86.9°F30.5°C 49.8°F9.9°C 28% 4.3 mph ENE6.9 kmh ENE 8.9 mph14.3 kmh 30.17 in1021.7 mb 0.00 in0.0 mm 0.00 in0.0 mm 0.00 in0.0 mm
12:55 PM 87.1°F30.6°C 50.0°F10.0°C 28% 4.5 mph 7.2 kmh 9.6 mph15.4 kmh 30.17 in1021.7 mb 0.00 in0.0 mm 0.00 in0.0 mm 0.00 in0.0 mm
12:53 PM 87.1°F30.6°C 50.0°F10.0°C 28% 3.1 mph WNW5.0 kmh WNW 8.1 mph13.0 kmh 30.17 in1021.7 mb 0.00 in0.0 mm 0.00 in0.0 mm 0.00 in0.0 mm
12:50 PM 87.1°F30.6°C 50.0°F10.0°C 28% 2.7 mph SSW4.3 kmh SSW 7.2 mph11.6 kmh 30.17 in1021.7 mb 0.00 in0.0 mm 0.00 in0.0 mm 0.00 in0.0 mm
12:48 PM 87.6°F30.9°C 50.5°F10.3°C 28% 2.9 mph 4.7 kmh 7.6 mph12.2 kmh 30.17 in1021.7 mb 0.00 in0.0 mm 0.00 in0.0 mm 0.00 in0.0 mm
12:46 PM 87.4°F30.8°C 50.4°F10.2°C 28% 2.2 mph W3.5 kmh W 7.2 mph11.6 kmh 30.17 in1021.7 mb 0.00 in0.0 mm 0.00 in0.0 mm 0.00 in0.0 mm
12:44 PM 87.3°F30.7°C 50.2°F10.1°C 28% 3.4 mph NE5.5 kmh NE 6.9 mph11.1 kmh 30.17 in1021.7 mb 0.00 in0.0 mm 0.00 in0.0 mm 0.00 in0.0 mm
12:41 PM 86.9°F30.5°C 50.9°F10.5°C 29% 4.0 mph ENE6.4 kmh ENE 9.6 mph15.4 kmh 30.17 in1021.7 mb 0.00 in0.0 mm 0.00 in0.0 mm 0.00 in0.0 mm
12:39 PM 86.9°F30.5°C 49.8°F9.9°C 28% 3.4 mph W5.5 kmh W 5.8 mph9.3 kmh 30.17 in1021.7 mb 0.00 in0.0 mm 0.00 in0.0 mm 0.00 in0.0 mm
12:37 PM 87.1°F30.6°C 50.0°F10.0°C 28% 4.7 mph NNW7.6 kmh NNW 9.2 mph14.8 kmh 30.17 in1021.7 mb 0.00 in0.0 mm 0.00 in0.0 mm 0.00 in0.0 mm
12:35 PM 86.7°F30.4°C 50.7°F10.4°C 29% 3.8 mph SW6.1 kmh SW 5.6 mph9.0 kmh 30.18 in1022.0 mb 0.00 in0.0 mm 0.00 in0.0 mm 0.00 in0.0 mm
12:33 PM 86.7°F30.4°C 49.6°F9.8°C 28% 4.3 mph S6.9 kmh S 12.3 mph19.8 kmh 30.17 in1021.7 mb 0.00 in0.0 mm 0.00 in0.0 mm 0.00 in0.0 mm
12:30 PM 87.3°F30.7°C 50.2°F10.1°C 28% 4.7 mph NNW7.6 kmh NNW 8.9 mph14.3 kmh 30.18 in1022.0 mb 0.00 in0.0 mm 0.00 in0.0 mm 0.00 in0.0 mm
12:28 PM 87.6°F30.9°C 50.5°F10.3°C 28% 4.9 mph NNE7.9 kmh NNE 13.0 mph20.9 kmh 30.18 in1022.0 mb 0.00 in0.0 mm 0.00 in0.0 mm 0.00 in0.0 mm
12:26 PM 87.3°F30.7°C 51.1°F10.6°C 29% 2.9 mph NE4.7 kmh NE 7.4 mph11.9 kmh 30.17 in1021.7 mb 0.00 in0.0 mm 0.00 in0.0 mm 0.00 in0.0 mm
12:24 PM 87.4°F30.8°C 50.4°F10.2°C 28% 2.9 mph NNW4.7 kmh NNW 3.8 mph6.1 kmh 30.17 in1021.7 mb 0.00 in0.0 mm 0.00 in0.0 mm 0.00 in0.0 mm
12:21 PM 86.9°F30.5°C 50.9°F10.5°C 29% 3.6 mph ENE5.8 kmh ENE 5.1 mph8.2 kmh 30.18 in1022.0 mb 0.00 in0.0 mm 0.00 in0.0 mm 0.00 in0.0 mm
12:19 PM 86.5°F30.3°C 50.5°F10.3°C 29% 4.7 mph E7.6 kmh E 5.4 mph8.7 kmh 30.17 in1021.7 mb 0.00 in0.0 mm 0.00 in0.0 mm 0.00 in0.0 mm
12:17 PM 86.5°F30.3°C 50.5°F10.3°C 29% 5.4 mph NE8.7 kmh NE 11.0 mph17.7 kmh 30.17 in1021.7 mb 0.00 in0.0 mm 0.00 in0.0 mm 0.00 in0.0 mm
12:15 PM 86.4°F30.2°C 51.3°F10.7°C 30% 4.5 mph NW7.2 kmh NW 8.3 mph13.4 kmh 30.17 in1021.7 mb 0.00 in0.0 mm 0.00 in0.0 mm 0.00 in0.0 mm
12:13 PM 86.4°F30.2°C 53.1°F11.7°C 32% 5.1 mph NNE8.2 kmh NNE 8.7 mph14.0 kmh 30.17 in1021.7 mb 0.00 in0.0 mm 0.00 in0.0 mm 0.00 in0.0 mm
12:11 PM 86.2°F30.1°C 51.1°F10.6°C 30% 3.8 mph NW6.1 kmh NW 7.6 mph12.2 kmh 30.17 in1021.7 mb 0.00 in0.0 mm 0.00 in0.0 mm 0.00 in0.0 mm
12:08 PM 85.8°F29.9°C 52.5°F11.4°C 32% 4.0 mph NNW6.4 kmh NNW 6.9 mph11.1 kmh 30.17 in1021.7 mb 0.00 in0.0 mm 0.00 in0.0 mm 0.00 in0.0 mm
12:06 PM 85.6°F29.8°C 53.2°F11.8°C 33% 3.6 mph WSW5.8 kmh WSW 5.1 mph8.2 kmh 30.17 in1021.7 mb 0.00 in0.0 mm 0.00 in0.0 mm 0.00 in0.0 mm
12:04 PM 85.8°F29.9°C 54.1°F12.3°C 34% 4.0 mph ENE6.4 kmh ENE 6.0 mph9.7 kmh 30.18 in1022.0 mb 0.00 in0.0 mm 0.00 in0.0 mm 0.00 in0.0 mm
12:02 PM 86.2°F30.1°C 54.5°F12.5°C 34% 3.8 mph NNW6.1 kmh NNW 5.4 mph8.7 kmh 30.18 in1022.0 mb 0.00 in0.0 mm 0.00 in0.0 mm 0.00 in0.0 mm
12:00 PM 86.2°F30.1°C 53.8°F12.1°C 33% 4.5 mph 7.2 kmh 7.4 mph11.9 kmh 30.17 in1021.7 mb 0.00 in0.0 mm 0.00 in0.0 mm 0.00 in0.0 mm
11:57 AM 86.2°F30.1°C 54.5°F12.5°C 34% 4.7 mph W7.6 kmh W 8.1 mph13.0 kmh 30.18 in1022.0 mb 0.00 in0.0 mm 0.00 in0.0 mm 0.00 in0.0 mm
11:55 AM 86.0°F30.0°C 54.3°F12.4°C 34% 4.0 mph 6.4 kmh 8.9 mph14.3 kmh 30.17 in1021.7 mb 0.00 in0.0 mm 0.00 in0.0 mm 0.00 in0.0 mm
11:53 AM 85.6°F29.8°C 54.9°F12.7°C 35% 5.1 mph NNE8.2 kmh NNE 6.5 mph10.5 kmh 30.17 in1021.7 mb 0.00 in0.0 mm 0.00 in0.0 mm 0.00 in0.0 mm
11:51 AM 85.6°F29.8°C 54.9°F12.7°C 35% 6.5 mph NNW10.5 kmh NNW 13.0 mph20.9 kmh 30.17 in1021.7 mb 0.00 in0.0 mm 0.00 in0.0 mm 0.00 in0.0 mm
11:49 AM 85.5°F29.7°C 54.7°F12.6°C 35% 8.7 mph 14.0 kmh 15.4 mph24.8 kmh 30.18 in1022.0 mb 0.00 in0.0 mm 0.00 in0.0 mm 0.00 in0.0 mm
11:46 AM 85.6°F29.8°C 54.9°F12.7°C 35% 5.8 mph NNE9.3 kmh NNE 8.9 mph14.3 kmh 30.17 in1021.7 mb 0.00 in0.0 mm 0.00 in0.0 mm 0.00 in0.0 mm
11:44 AM 85.8°F29.9°C 54.1°F12.3°C 34% 5.4 mph W8.7 kmh W 13.4 mph21.6 kmh 30.17 in1021.7 mb 0.00 in0.0 mm 0.00 in0.0 mm 0.00 in0.0 mm
11:42 AM 85.8°F29.9°C 53.4°F11.9°C 33% 4.0 mph NW6.4 kmh NW 5.4 mph8.7 kmh 30.17 in1021.7 mb 0.00 in0.0 mm 0.00 in0.0 mm 0.00 in0.0 mm
11:40 AM 85.6°F29.8°C 53.2°F11.8°C 33% 4.3 mph SE6.9 kmh SE 12.1 mph19.5 kmh 30.17 in1021.7 mb 0.00 in0.0 mm 0.00 in0.0 mm 0.00 in0.0 mm
11:38 AM 85.8°F29.9°C 53.4°F11.9°C 33% 3.4 mph 5.5 kmh 4.3 mph6.9 kmh 30.18 in1022.0 mb 0.00 in0.0 mm 0.00 in0.0 mm 0.00 in0.0 mm
11:35 AM 85.8°F29.9°C 53.4°F11.9°C 33% 4.3 mph ENE6.9 kmh ENE 7.6 mph12.2 kmh 30.17 in1021.7 mb 0.00 in0.0 mm 0.00 in0.0 mm 0.00 in0.0 mm
11:33 AM 85.6°F29.8°C 53.2°F11.8°C 33% 4.9 mph WNW7.9 kmh WNW 8.3 mph13.4 kmh 30.18 in1022.0 mb 0.00 in0.0 mm 0.00 in0.0 mm 0.00 in0.0 mm
11:31 AM 85.6°F29.8°C 53.2°F11.8°C 33% 5.4 mph NNW8.7 kmh NNW 7.6 mph12.2 kmh 30.17 in1021.7 mb 0.00 in0.0 mm 0.00 in0.0 mm 0.00 in0.0 mm
11:29 AM 85.8°F29.9°C 53.4°F11.9°C 33% 4.5 mph SE7.2 kmh SE 10.3 mph16.6 kmh 30.18 in1022.0 mb 0.00 in0.0 mm 0.00 in0.0 mm 0.00 in0.0 mm
11:26 AM 85.6°F29.8°C 53.2°F11.8°C 33% 3.6 mph 5.8 kmh 10.1 mph16.3 kmh 30.18 in1022.0 mb 0.00 in0.0 mm 0.00 in0.0 mm 0.00 in0.0 mm
11:24 AM 85.6°F29.8°C 53.2°F11.8°C 33% 2.9 mph WNW4.7 kmh WNW 5.1 mph8.2 kmh 30.17 in1021.7 mb 0.00 in0.0 mm 0.00 in0.0 mm 0.00 in0.0 mm
11:22 AM 85.8°F29.9°C 53.4°F11.9°C 33% 3.6 mph NNW5.8 kmh NNW 8.5 mph13.7 kmh 30.18 in1022.0 mb 0.00 in0.0 mm 0.00 in0.0 mm 0.00 in0.0 mm
11:20 AM 85.3°F29.6°C 52.9°F11.6°C 33% 2.9 mph SSW4.7 kmh SSW 6.5 mph10.5 kmh 30.18 in1022.0 mb 0.00 in0.0 mm 0.00 in0.0 mm 0.00 in0.0 mm
11:18 AM 84.9°F29.4°C 52.5°F11.4°C 33% 2.9 mph NW4.7 kmh NW 4.3 mph6.9 kmh 30.18 in1022.0 mb 0.00 in0.0 mm 0.00 in0.0 mm 0.00 in0.0 mm
11:16 AM 84.9°F29.4°C 53.4°F11.9°C 34% 3.4 mph 5.5 kmh 6.7 mph10.8 kmh 30.18 in1022.0 mb 0.00 in0.0 mm 0.00 in0.0 mm 0.00 in0.0 mm
11:13 AM 84.9°F29.4°C 52.5°F11.4°C 33% 2.9 mph NNW4.7 kmh NNW 4.3 mph6.9 kmh 30.18 in1022.0 mb 0.00 in0.0 mm 0.00 in0.0 mm 0.00 in0.0 mm
11:11 AM 85.1°F29.5°C 52.7°F11.5°C 33% 3.4 mph NNW5.5 kmh NNW 6.7 mph10.8 kmh 30.18 in1022.0 mb 0.00 in0.0 mm 0.00 in0.0 mm 0.00 in0.0 mm
11:09 AM 84.7°F29.3°C 52.5°F11.4°C 33% 2.9 mph NW4.7 kmh NW 1.6 mph2.6 kmh 30.18 in1022.0 mb 0.00 in0.0 mm 0.00 in0.0 mm 0.00 in0.0 mm
11:07 AM 84.9°F29.4°C 52.5°F11.4°C 33% 5.1 mph WNW8.2 kmh WNW 8.5 mph13.7 kmh 30.18 in1022.0 mb 0.00 in0.0 mm 0.00 in0.0 mm 0.00 in0.0 mm
11:04 AM 84.7°F29.3°C 52.5°F11.4°C 33% 6.0 mph 9.7 kmh 10.5 mph16.9 kmh 30.19 in1022.4 mb 0.00 in0.0 mm 0.00 in0.0 mm 0.00 in0.0 mm
11:02 AM 84.6°F29.2°C 52.3°F11.3°C 33% 5.6 mph NNW9.0 kmh NNW 9.6 mph15.4 kmh 30.19 in1022.4 mb 0.00 in0.0 mm 0.00 in0.0 mm 0.00 in0.0 mm
11:00 AM 84.6°F29.2°C 52.3°F11.3°C 33% 6.0 mph WNW9.7 kmh WNW 13.4 mph21.6 kmh 30.19 in1022.4 mb 0.00 in0.0 mm 0.00 in0.0 mm 0.00 in0.0 mm
10:58 AM 84.6°F29.2°C 52.3°F11.3°C 33% 5.8 mph NNW9.3 kmh NNW 8.5 mph13.7 kmh 30.19 in1022.4 mb 0.00 in0.0 mm 0.00 in0.0 mm 0.00 in0.0 mm
10:56 AM 84.7°F29.3°C 52.5°F11.4°C 33% 5.6 mph NNW9.0 kmh NNW 12.3 mph19.8 kmh 30.18 in1022.0 mb 0.00 in0.0 mm 0.00 in0.0 mm 0.00 in0.0 mm
10:53 AM 84.7°F29.3°C 52.5°F11.4°C 33% 4.3 mph NW6.9 kmh NW 7.6 mph12.2 kmh 30.19 in1022.4 mb 0.00 in0.0 mm 0.00 in0.0 mm 0.00 in0.0 mm
10:51 AM 84.6°F29.2°C 51.4°F10.8°C 32% 3.1 mph NNW5.0 kmh NNW 5.8 mph9.3 kmh 30.18 in1022.0 mb 0.00 in0.0 mm 0.00 in0.0 mm 0.00 in0.0 mm
10:49 AM 84.6°F29.2°C 51.4°F10.8°C 32% 2.7 mph W4.3 kmh W 5.4 mph8.7 kmh 30.18 in1022.0 mb 0.00 in0.0 mm 0.00 in0.0 mm 0.00 in0.0 mm
10:47 AM 84.7°F29.3°C 51.6°F10.9°C 32% 2.2 mph SSW3.5 kmh SSW 3.1 mph5.0 kmh 30.19 in1022.4 mb 0.00 in0.0 mm 0.00 in0.0 mm 0.00 in0.0 mm
10:45 AM 84.7°F29.3°C 51.6°F10.9°C 32% 3.4 mph WNW5.5 kmh WNW 6.0 mph9.7 kmh 30.18 in1022.0 mb 0.00 in0.0 mm 0.00 in0.0 mm 0.00 in0.0 mm
10:42 AM 84.7°F29.3°C 51.6°F10.9°C 32% 2.7 mph NNW4.3 kmh NNW 6.3 mph10.1 kmh 30.18 in1022.0 mb 0.00 in0.0 mm 0.00 in0.0 mm 0.00 in0.0 mm
10:40 AM 84.6°F29.2°C 51.4°F10.8°C 32% 2.7 mph NNW4.3 kmh NNW 6.7 mph10.8 kmh 30.18 in1022.0 mb 0.00 in0.0 mm 0.00 in0.0 mm 0.00 in0.0 mm
10:38 AM 84.7°F29.3°C 51.6°F10.9°C 32% 2.5 mph NNW4.0 kmh NNW 4.9 mph7.9 kmh 30.18 in1022.0 mb 0.00 in0.0 mm 0.00 in0.0 mm 0.00 in0.0 mm
10:36 AM 85.1°F29.5°C 51.1°F10.6°C 31% 2.2 mph SE3.5 kmh SE 4.7 mph7.6 kmh 30.19 in1022.4 mb 0.00 in0.0 mm 0.00 in0.0 mm 0.00 in0.0 mm
10:33 AM 84.9°F29.4°C 51.8°F11.0°C 32% 1.8 mph NE2.9 kmh NE 4.5 mph7.2 kmh 30.19 in1022.4 mb 0.00 in0.0 mm 0.00 in0.0 mm 0.00 in0.0 mm
10:31 AM 84.6°F29.2°C 51.4°F10.8°C 32% 1.6 mph NW2.6 kmh NW 1.6 mph2.6 kmh 30.19 in1022.4 mb 0.00 in0.0 mm 0.00 in0.0 mm 0.00 in0.0 mm
10:29 AM 84.0°F28.9°C 50.9°F10.5°C 32% 2.2 mph NNW3.5 kmh NNW 5.1 mph8.2 kmh 30.18 in1022.0 mb 0.00 in0.0 mm 0.00 in0.0 mm 0.00 in0.0 mm
10:27 AM 84.0°F28.9°C 50.9°F10.5°C 32% 2.7 mph NE4.3 kmh NE 5.6 mph9.0 kmh 30.19 in1022.4 mb 0.00 in0.0 mm 0.00 in0.0 mm 0.00 in0.0 mm
10:25 AM 83.8°F28.8°C 50.9°F10.5°C 32% 2.5 mph NNE4.0 kmh NNE 6.9 mph11.1 kmh 30.19 in1022.4 mb 0.00 in0.0 mm 0.00 in0.0 mm 0.00 in0.0 mm
10:22 AM 83.5°F28.6°C 50.5°F10.3°C 32% 2.2 mph NE3.5 kmh NE 2.9 mph4.7 kmh 30.19 in1022.4 mb 0.00 in0.0 mm 0.00 in0.0 mm 0.00 in0.0 mm
10:20 AM 83.5°F28.6°C 50.5°F10.3°C 32% 2.5 mph SE4.0 kmh SE 7.6 mph12.2 kmh 30.19 in1022.4 mb 0.00 in0.0 mm 0.00 in0.0 mm 0.00 in0.0 mm
10:18 AM 83.5°F28.6°C 51.4°F10.8°C 33% 2.0 mph 3.2 kmh 4.0 mph6.4 kmh 30.19 in1022.4 mb 0.00 in0.0 mm 0.00 in0.0 mm 0.00 in0.0 mm
10:16 AM 83.1°F28.4°C 51.1°F10.6°C 33% 2.2 mph W3.5 kmh W 2.0 mph3.2 kmh 30.19 in1022.4 mb 0.00 in0.0 mm 0.00 in0.0 mm 0.00 in0.0 mm
10:14 AM 83.1°F28.4°C 50.2°F10.1°C 32% 2.7 mph WNW4.3 kmh WNW 5.8 mph9.3 kmh 30.19 in1022.4 mb 0.00 in0.0 mm 0.00 in0.0 mm 0.00 in0.0 mm
10:12 AM 83.1°F28.4°C 50.2°F10.1°C 32% 2.7 mph NW4.3 kmh NW 3.6 mph5.8 kmh 30.19 in1022.4 mb 0.00 in0.0 mm 0.00 in0.0 mm 0.00 in0.0 mm
10:09 AM 82.9°F28.3°C 50.9°F10.5°C 33% 2.9 mph SSE4.7 kmh SSE 4.5 mph7.2 kmh 30.19 in1022.4 mb 0.00 in0.0 mm 0.00 in0.0 mm 0.00 in0.0 mm
10:07 AM 82.8°F28.2°C 49.8°F9.9°C 32% 3.4 mph NNE5.5 kmh NNE 7.6 mph12.2 kmh 30.19 in1022.4 mb 0.00 in0.0 mm 0.00 in0.0 mm 0.00 in0.0 mm
10:05 AM 82.8°F28.2°C 49.8°F9.9°C 32% 2.2 mph ENE3.5 kmh ENE 1.8 mph2.9 kmh 30.19 in1022.4 mb 0.00 in0.0 mm 0.00 in0.0 mm 0.00 in0.0 mm
10:03 AM 83.1°F28.4°C 49.3°F9.6°C 31% 3.4 mph WNW5.5 kmh WNW 7.8 mph12.6 kmh 30.19 in1022.4 mb 0.00 in0.0 mm 0.00 in0.0 mm 0.00 in0.0 mm
10:01 AM 83.3°F28.5°C 49.5°F9.7°C 31% 2.0 mph WNW3.2 kmh WNW 6.7 mph10.8 kmh 30.19 in1022.4 mb 0.00 in0.0 mm 0.00 in0.0 mm 0.00 in0.0 mm
09:58 AM 83.1°F28.4°C 50.2°F10.1°C 32% 0.9 mph W1.4 kmh W 0.7 mph1.1 kmh 30.19 in1022.4 mb 0.00 in0.0 mm 0.00 in0.0 mm 0.00 in0.0 mm
09:56 AM 82.9°F28.3°C 50.0°F10.0°C 32% 1.3 mph NNE2.1 kmh NNE 3.6 mph5.8 kmh 30.19 in1022.4 mb 0.00 in0.0 mm 0.00 in0.0 mm 0.00 in0.0 mm
09:54 AM 82.6°F28.1°C 50.5°F10.3°C 33% 1.6 mph ENE2.6 kmh ENE 3.4 mph5.5 kmh 30.19 in1022.4 mb 0.00 in0.0 mm 0.00 in0.0 mm 0.00 in0.0 mm
09:52 AM 82.2°F27.9°C 48.6°F9.2°C 31% 1.8 mph NW2.9 kmh NW 4.0 mph6.4 kmh 30.18 in1022.0 mb 0.00 in0.0 mm 0.00 in0.0 mm 0.00 in0.0 mm
09:50 AM 82.6°F28.1°C 48.9°F9.4°C 31% 2.0 mph NNW3.2 kmh NNW 3.8 mph6.1 kmh 30.19 in1022.4 mb 0.00 in0.0 mm 0.00 in0.0 mm 0.00 in0.0 mm
09:47 AM 82.8°F28.2°C 49.1°F9.5°C 31% 1.8 mph NW2.9 kmh NW 3.6 mph5.8 kmh 30.19 in1022.4 mb 0.00 in0.0 mm 0.00 in0.0 mm 0.00 in0.0 mm
09:45 AM 82.6°F28.1°C 49.8°F9.9°C 32% 1.6 mph 2.6 kmh 2.2 mph3.5 kmh 30.19 in1022.4 mb 0.00 in0.0 mm 0.00 in0.0 mm 0.00 in0.0 mm
09:43 AM 82.6°F28.1°C 48.9°F9.4°C 31% 2.0 mph NW3.2 kmh NW 5.1 mph8.2 kmh 30.19 in1022.4 mb 0.00 in0.0 mm 0.00 in0.0 mm 0.00 in0.0 mm
09:41 AM 82.6°F28.1°C 48.9°F9.4°C 31% 1.8 mph W2.9 kmh W 5.6 mph9.0 kmh 30.19 in1022.4 mb 0.00 in0.0 mm 0.00 in0.0 mm 0.00 in0.0 mm
09:38 AM 82.2°F27.9°C 49.5°F9.7°C 32% 0.9 mph NNE1.4 kmh NNE 1.1 mph1.8 kmh 30.19 in1022.4 mb 0.00 in0.0 mm 0.00 in0.0 mm 0.00 in0.0 mm
09:36 AM 82.2°F27.9°C 48.6°F9.2°C 31% 1.3 mph WNW2.1 kmh WNW 2.5 mph4.0 kmh 30.19 in1022.4 mb 0.00 in0.0 mm 0.00 in0.0 mm 0.00 in0.0 mm
09:34 AM 82.2°F27.9°C 48.6°F9.2°C 31% 1.6 mph W2.6 kmh W 3.1 mph5.0 kmh 30.19 in1022.4 mb 0.00 in0.0 mm 0.00 in0.0 mm 0.00 in0.0 mm
09:32 AM 82.2°F27.9°C 48.6°F9.2°C 31% 1.3 mph WNW2.1 kmh WNW 1.8 mph2.9 kmh 30.19 in1022.4 mb 0.00 in0.0 mm 0.00 in0.0 mm 0.00 in0.0 mm
09:30 AM 82.2°F27.9°C 49.5°F9.7°C 32% 1.8 mph W2.9 kmh W 2.7 mph4.3 kmh 30.18 in1022.0 mb 0.00 in0.0 mm 0.00 in0.0 mm 0.00 in0.0 mm
09:27 AM 82.0°F27.8°C 50.2°F10.1°C 33% 1.8 mph W2.9 kmh W 3.1 mph5.0 kmh 30.18 in1022.0 mb 0.00 in0.0 mm 0.00 in0.0 mm 0.00 in0.0 mm
09:25 AM 81.9°F27.7°C 50.0°F10.0°C 33% 1.6 mph NW2.6 kmh NW 3.1 mph5.0 kmh 30.18 in1022.0 mb 0.00 in0.0 mm 0.00 in0.0 mm 0.00 in0.0 mm
09:23 AM 81.7°F27.6°C 49.8°F9.9°C 33% 1.6 mph WSW2.6 kmh WSW 4.0 mph6.4 kmh 30.18 in1022.0 mb 0.00 in0.0 mm 0.00 in0.0 mm 0.00 in0.0 mm
09:21 AM 81.5°F27.5°C 49.6°F9.8°C 33% 2.0 mph 3.2 kmh 3.8 mph6.1 kmh 30.18 in1022.0 mb 0.00 in0.0 mm 0.00 in0.0 mm 0.00 in0.0 mm
09:18 AM 81.5°F27.5°C 49.6°F9.8°C 33% 1.8 mph NW2.9 kmh NW 4.7 mph7.6 kmh 30.18 in1022.0 mb 0.00 in0.0 mm 0.00 in0.0 mm 0.00 in0.0 mm
09:16 AM 81.7°F27.6°C 50.5°F10.3°C 34% 1.6 mph NE2.6 kmh NE 6.3 mph10.1 kmh 30.18 in1022.0 mb 0.00 in0.0 mm 0.00 in0.0 mm 0.00 in0.0 mm
09:14 AM 81.5°F27.5°C 50.4°F10.2°C 34% 1.3 mph SE2.1 kmh SE 3.8 mph6.1 kmh 30.18 in1022.0 mb 0.00 in0.0 mm 0.00 in0.0 mm 0.00 in0.0 mm
09:12 AM 81.1°F27.3°C 50.2°F10.1°C 34% 1.6 mph S2.6 kmh S 2.9 mph4.7 kmh 30.18 in1022.0 mb 0.00 in0.0 mm 0.00 in0.0 mm 0.00 in0.0 mm
09:10 AM 81.0°F27.2°C 50.0°F10.0°C 34% 2.2 mph NNE3.5 kmh NNE 5.1 mph8.2 kmh 30.18 in1022.0 mb 0.00 in0.0 mm 0.00 in0.0 mm 0.00 in0.0 mm
09:08 AM 80.8°F27.1°C 49.8°F9.9°C 34% 2.2 mph WNW3.5 kmh WNW 2.9 mph4.7 kmh 30.19 in1022.4 mb 0.00 in0.0 mm 0.00 in0.0 mm 0.00 in0.0 mm
09:06 AM 80.4°F26.9°C 50.2°F10.1°C 35% 2.5 mph NW4.0 kmh NW 5.1 mph8.2 kmh 30.18 in1022.0 mb 0.00 in0.0 mm 0.00 in0.0 mm 0.00 in0.0 mm
09:04 AM 80.4°F26.9°C 50.2°F10.1°C 35% 2.5 mph SSE4.0 kmh SSE 3.8 mph6.1 kmh 30.18 in1022.0 mb 0.00 in0.0 mm 0.00 in0.0 mm 0.00 in0.0 mm
09:02 AM 80.4°F26.9°C 51.1°F10.6°C 36% 2.5 mph NNE4.0 kmh NNE 6.3 mph10.1 kmh 30.18 in1022.0 mb 0.00 in0.0 mm 0.00 in0.0 mm 0.00 in0.0 mm
08:59 AM 80.4°F26.9°C 51.1°F10.6°C 36% 1.6 mph NNW2.6 kmh NNW 4.0 mph6.4 kmh 30.18 in1022.0 mb 0.00 in0.0 mm 0.00 in0.0 mm 0.00 in0.0 mm
08:57 AM 79.9°F26.6°C 51.3°F10.7°C 37% 1.3 mph SSW2.1 kmh SSW 2.9 mph4.7 kmh 30.18 in1022.0 mb 0.00 in0.0 mm 0.00 in0.0 mm 0.00 in0.0 mm
08:55 AM 79.5°F26.4°C 50.9°F10.5°C 37% 1.8 mph NNE2.9 kmh NNE 2.2 mph3.5 kmh 30.18 in1022.0 mb 0.00 in0.0 mm 0.00 in0.0 mm 0.00 in0.0 mm
08:53 AM 79.3°F26.3°C 50.7°F10.4°C 37% 2.5 mph NW4.0 kmh NW 4.5 mph7.2 kmh 30.18 in1022.0 mb 0.00 in0.0 mm 0.00 in0.0 mm 0.00 in0.0 mm
08:50 AM 79.0°F26.1°C 50.5°F10.3°C 37% 1.6 mph WSW2.6 kmh WSW 5.1 mph8.2 kmh 30.18 in1022.0 mb 0.00 in0.0 mm 0.00 in0.0 mm 0.00 in0.0 mm
08:48 AM 78.6°F25.9°C 50.9°F10.5°C 38% 1.3 mph WSW2.1 kmh WSW 0.7 mph1.1 kmh 30.18 in1022.0 mb 0.00 in0.0 mm 0.00 in0.0 mm 0.00 in0.0 mm
08:46 AM 78.6°F25.9°C 50.2°F10.1°C 37% 2.5 mph NNE4.0 kmh NNE 6.3 mph10.1 kmh 30.17 in1021.7 mb 0.00 in0.0 mm 0.00 in0.0 mm 0.00 in0.0 mm
08:44 AM 78.6°F25.9°C 50.9°F10.5°C 38% 2.2 mph 3.5 kmh 3.8 mph6.1 kmh 30.17 in1021.7 mb 0.00 in0.0 mm 0.00 in0.0 mm 0.00 in0.0 mm
08:42 AM 78.6°F25.9°C 50.9°F10.5°C 38% 1.8 mph 2.9 kmh 3.1 mph5.0 kmh 30.17 in1021.7 mb 0.00 in0.0 mm 0.00 in0.0 mm 0.00 in0.0 mm
08:40 AM 79.0°F26.1°C 51.3°F10.7°C 38% 1.6 mph 2.6 kmh 2.7 mph4.3 kmh 30.17 in1021.7 mb 0.00 in0.0 mm 0.00 in0.0 mm 0.00 in0.0 mm
08:37 AM 79.0°F26.1°C 51.3°F10.7°C 38% 1.1 mph SW1.8 kmh SW 2.2 mph3.5 kmh 30.17 in1021.7 mb 0.00 in0.0 mm 0.00 in0.0 mm 0.00 in0.0 mm
08:35 AM 79.0°F26.1°C 51.3°F10.7°C 38% 0.9 mph WSW1.4 kmh WSW 2.0 mph3.2 kmh 30.17 in1021.7 mb 0.00 in0.0 mm 0.00 in0.0 mm 0.00 in0.0 mm
08:33 AM 79.0°F26.1°C 50.5°F10.3°C 37% 0.9 mph 1.4 kmh 2.0 mph3.2 kmh 30.17 in1021.7 mb 0.00 in0.0 mm 0.00 in0.0 mm 0.00 in0.0 mm
08:31 AM 79.5°F26.4°C 50.9°F10.5°C 37% 1.1 mph NW1.8 kmh NW 3.1 mph5.0 kmh 30.17 in1021.7 mb 0.00 in0.0 mm 0.00 in0.0 mm 0.00 in0.0 mm
08:29 AM 79.3°F26.3°C 51.4°F10.8°C 38% 0.9 mph SW1.4 kmh SW 1.6 mph2.6 kmh 30.18 in1022.0 mb 0.00 in0.0 mm 0.00 in0.0 mm 0.00 in0.0 mm
08:26 AM 79.0°F26.1°C 51.3°F10.7°C 38% 0.9 mph ESE1.4 kmh ESE 1.6 mph2.6 kmh 30.18 in1022.0 mb 0.00 in0.0 mm 0.00 in0.0 mm 0.00 in0.0 mm
08:24 AM 78.8°F26.0°C 51.1°F10.6°C 38% 1.3 mph ENE2.1 kmh ENE 2.0 mph3.2 kmh 30.18 in1022.0 mb 0.00 in0.0 mm 0.00 in0.0 mm 0.00 in0.0 mm
08:22 AM 78.8°F26.0°C 51.1°F10.6°C 38% 1.3 mph ENE2.1 kmh ENE 3.8 mph6.1 kmh 30.18 in1022.0 mb 0.00 in0.0 mm 0.00 in0.0 mm 0.00 in0.0 mm
08:20 AM 78.6°F25.9°C 50.9°F10.5°C 38% 0.4 mph SW0.6 kmh SW 1.8 mph2.9 kmh 30.17 in1021.7 mb 0.00 in0.0 mm 0.00 in0.0 mm 0.00 in0.0 mm
08:17 AM 78.6°F25.9°C 50.9°F10.5°C 38% 0.4 mph SSE0.6 kmh SSE 2.2 mph3.5 kmh 30.17 in1021.7 mb 0.00 in0.0 mm 0.00 in0.0 mm 0.00 in0.0 mm
08:15 AM 78.6°F25.9°C 51.6°F10.9°C 39% 0.4 mph NNE0.6 kmh NNE 2.5 mph4.0 kmh 30.17 in1021.7 mb 0.00 in0.0 mm 0.00 in0.0 mm 0.00 in0.0 mm
08:13 AM 78.6°F25.9°C 51.6°F10.9°C 39% 0.4 mph E0.6 kmh E 1.3 mph2.1 kmh 30.17 in1021.7 mb 0.00 in0.0 mm 0.00 in0.0 mm 0.00 in0.0 mm
08:11 AM 78.3°F25.7°C 51.3°F10.7°C 39% 0.4 mph NNE0.6 kmh NNE 1.3 mph2.1 kmh 30.17 in1021.7 mb 0.00 in0.0 mm 0.00 in0.0 mm 0.00 in0.0 mm
08:08 AM 78.1°F25.6°C 51.8°F11.0°C 40% 0.4 mph NNW0.6 kmh NNW 1.1 mph1.8 kmh 30.17 in1021.7 mb 0.00 in0.0 mm 0.00 in0.0 mm 0.00 in0.0 mm
08:06 AM 77.9°F25.5°C 51.6°F10.9°C 40% 0.7 mph NW1.1 kmh NW 0.7 mph1.1 kmh 30.17 in1021.7 mb 0.00 in0.0 mm 0.00 in0.0 mm 0.00 in0.0 mm
08:04 AM 77.7°F25.4°C 51.4°F10.8°C 40% 0.9 mph NNE1.4 kmh NNE 2.7 mph4.3 kmh 30.17 in1021.7 mb 0.00 in0.0 mm 0.00 in0.0 mm 0.00 in0.0 mm
08:02 AM 77.7°F25.4°C 51.4°F10.8°C 40% 0.7 mph SE1.1 kmh SE 2.9 mph4.7 kmh 30.17 in1021.7 mb 0.00 in0.0 mm 0.00 in0.0 mm 0.00 in0.0 mm
08:00 AM 77.5°F25.3°C 51.3°F10.7°C 40% 0.7 mph NW1.1 kmh NW 2.0 mph3.2 kmh 30.17 in1021.7 mb 0.00 in0.0 mm 0.00 in0.0 mm 0.00 in0.0 mm
07:58 AM 77.4°F25.2°C 50.5°F10.3°C 39% 0.9 mph NW1.4 kmh NW 2.0 mph3.2 kmh 30.17 in1021.7 mb 0.00 in0.0 mm 0.00 in0.0 mm 0.00 in0.0 mm
07:55 AM 77.5°F25.3°C 51.3°F10.7°C 40% 0.7 mph NNW1.1 kmh NNW 3.8 mph6.1 kmh 30.17 in1021.7 mb 0.00 in0.0 mm 0.00 in0.0 mm 0.00 in0.0 mm
07:53 AM 77.5°F25.3°C 50.5°F10.3°C 39% 0.4 mph WNW0.6 kmh WNW 1.3 mph2.1 kmh 30.17 in1021.7 mb 0.00 in0.0 mm 0.00 in0.0 mm 0.00 in0.0 mm
07:51 AM 77.4°F25.2°C 50.5°F10.3°C 39% 0.4 mph W0.6 kmh W 1.3 mph2.1 kmh 30.17 in1021.7 mb 0.00 in0.0 mm 0.00 in0.0 mm 0.00 in0.0 mm
07:49 AM 77.5°F25.3°C 50.5°F10.3°C 39% 0.7 mph W1.1 kmh W 1.8 mph2.9 kmh 30.17 in1021.7 mb 0.00 in0.0 mm 0.00 in0.0 mm 0.00 in0.0 mm
07:46 AM 77.5°F25.3°C 51.3°F10.7°C 40% 0.4 mph NNW0.6 kmh NNW 1.8 mph2.9 kmh 30.17 in1021.7 mb 0.00 in0.0 mm 0.00 in0.0 mm 0.00 in0.0 mm
07:44 AM 77.4°F25.2°C 51.1°F10.6°C 40% 0.2 mph 0.3 kmh -- 30.17 in1021.7 mb 0.00 in0.0 mm 0.00 in0.0 mm 0.00 in0.0 mm
07:42 AM 77.0°F25.0°C 50.9°F10.5°C 40% 0.4 mph WNW0.6 kmh WNW -- 30.17 in1021.7 mb 0.00 in0.0 mm 0.00 in0.0 mm 0.00 in0.0 mm
07:40 AM 76.8°F24.9°C 50.7°F10.4°C 40% 0.7 mph W1.1 kmh W 1.6 mph2.6 kmh 30.17 in1021.7 mb 0.00 in0.0 mm 0.00 in0.0 mm 0.00 in0.0 mm
07:38 AM 76.8°F24.9°C 51.3°F10.7°C 41% 0.2 mph NNW0.3 kmh NNW -- 30.17 in1021.7 mb 0.00 in0.0 mm 0.00 in0.0 mm 0.00 in0.0 mm
07:35 AM 76.6°F24.8°C 51.3°F10.7°C 41% 0.4 mph WSW0.6 kmh WSW 0.7 mph1.1 kmh 30.17 in1021.7 mb 0.00 in0.0 mm 0.00 in0.0 mm 0.00 in0.0 mm
07:33 AM 76.3°F24.6°C 50.9°F10.5°C 41% 0.2 mph W0.3 kmh W -- 30.17 in1021.7 mb 0.00 in0.0 mm 0.00 in0.0 mm 0.00 in0.0 mm
07:31 AM 75.9°F24.4°C 51.3°F10.7°C 42% 0.2 mph SW0.3 kmh SW -- 30.17 in1021.7 mb 0.00 in0.0 mm 0.00 in0.0 mm 0.00 in0.0 mm
07:29 AM 75.6°F24.2°C 50.9°F10.5°C 42% 0.2 mph NNW0.3 kmh NNW 0.7 mph1.1 kmh 30.17 in1021.7 mb 0.00 in0.0 mm 0.00 in0.0 mm 0.00 in0.0 mm
07:26 AM 75.4°F24.1°C 50.7°F10.4°C 42% 0.2 mph NW0.3 kmh NW 0.9 mph1.4 kmh 30.17 in1021.7 mb 0.00 in0.0 mm 0.00 in0.0 mm 0.00 in0.0 mm
07:24 AM 75.0°F23.9°C 51.1°F10.6°C 43% 0.2 mph WSW0.3 kmh WSW 0.7 mph1.1 kmh 30.17 in1021.7 mb 0.00 in0.0 mm 0.00 in0.0 mm 0.00 in0.0 mm
07:22 AM 75.0°F23.9°C 51.1°F10.6°C 43% 0.4 mph WSW0.6 kmh WSW 0.9 mph1.4 kmh 30.17 in1021.7 mb 0.00 in0.0 mm 0.00 in0.0 mm 0.00 in0.0 mm
07:20 AM 74.8°F23.8°C 50.9°F10.5°C 43% 0.4 mph WNW0.6 kmh WNW 0.9 mph1.4 kmh 30.17 in1021.7 mb 0.00 in0.0 mm 0.00 in0.0 mm 0.00 in0.0 mm
07:17 AM 74.5°F23.6°C 50.5°F10.3°C 43% 0.4 mph W0.6 kmh W 1.6 mph2.6 kmh 30.17 in1021.7 mb 0.00 in0.0 mm 0.00 in0.0 mm 0.00 in0.0 mm
07:15 AM 74.5°F23.6°C 50.5°F10.3°C 43% 0.4 mph WSW0.6 kmh WSW 1.3 mph2.1 kmh 30.17 in1021.7 mb 0.00 in0.0 mm 0.00 in0.0 mm 0.00 in0.0 mm
07:13 AM 74.3°F23.5°C 50.9°F10.5°C 44% 0.2 mph WNW0.3 kmh WNW -- 30.17 in1021.7 mb 0.00 in0.0 mm 0.00 in0.0 mm 0.00 in0.0 mm
07:11 AM 74.1°F23.4°C 50.9°F10.5°C 44% 0.2 mph WNW0.3 kmh WNW -- 30.17 in1021.7 mb 0.00 in0.0 mm 0.00 in0.0 mm 0.00 in0.0 mm
07:09 AM 74.1°F23.4°C 50.9°F10.5°C 44% 0.2 mph WNW0.3 kmh WNW -- 30.17 in1021.7 mb 0.00 in0.0 mm 0.00 in0.0 mm 0.00 in0.0 mm
07:06 AM 73.9°F23.3°C 50.7°F10.4°C 44% 0.4 mph WNW0.6 kmh WNW 0.9 mph1.4 kmh 30.18 in1022.0 mb 0.00 in0.0 mm 0.00 in0.0 mm 0.00 in0.0 mm
07:04 AM 73.9°F23.3°C 50.7°F10.4°C 44% 0.4 mph W0.6 kmh W 1.6 mph2.6 kmh 30.17 in1021.7 mb 0.00 in0.0 mm 0.00 in0.0 mm 0.00 in0.0 mm
07:02 AM 73.9°F23.3°C 50.7°F10.4°C 44% 0.2 mph WNW0.3 kmh WNW -- 30.17 in1021.7 mb 0.00 in0.0 mm 0.00 in0.0 mm 0.00 in0.0 mm
07:00 AM 73.9°F23.3°C 50.7°F10.4°C 44% 0.4 mph WNW0.6 kmh WNW 0.9 mph1.4 kmh 30.17 in1021.7 mb 0.00 in0.0 mm 0.00 in0.0 mm 0.00 in0.0 mm
06:57 AM 73.9°F23.3°C 50.7°F10.4°C 44% 0.4 mph WNW0.6 kmh WNW 1.1 mph1.8 kmh 30.17 in1021.7 mb 0.00 in0.0 mm 0.00 in0.0 mm 0.00 in0.0 mm
06:55 AM 73.8°F23.2°C 50.5°F10.3°C 44% 0.4 mph SW0.6 kmh SW 1.8 mph2.9 kmh 30.17 in1021.7 mb 0.00 in0.0 mm 0.00 in0.0 mm 0.00 in0.0 mm
06:53 AM 73.8°F23.2°C 50.5°F10.3°C 44% 0.2 mph WNW0.3 kmh WNW 1.3 mph2.1 kmh 30.17 in1021.7 mb 0.00 in0.0 mm 0.00 in0.0 mm 0.00 in0.0 mm
06:51 AM 73.8°F23.2°C 51.1°F10.6°C 45% 0.2 mph W0.3 kmh W -- 30.17 in1021.7 mb 0.00 in0.0 mm 0.00 in0.0 mm 0.00 in0.0 mm
06:49 AM 73.6°F23.1°C 50.9°F10.5°C 45% 0.2 mph W0.3 kmh W -- 30.17 in1021.7 mb 0.00 in0.0 mm 0.00 in0.0 mm 0.00 in0.0 mm
06:47 AM 73.6°F23.1°C 50.9°F10.5°C 45% 0.2 mph W0.3 kmh W -- 30.17 in1021.7 mb 0.00 in0.0 mm 0.00 in0.0 mm 0.00 in0.0 mm
06:44 AM 73.4°F23.0°C 50.7°F10.4°C 45% 0.2 mph WSW0.3 kmh WSW -- 30.17 in1021.7 mb 0.00 in0.0 mm 0.00 in0.0 mm 0.00 in0.0 mm
06:42 AM 73.2°F22.9°C 50.5°F10.3°C 45% 0.2 mph SE0.3 kmh SE -- 30.16 in1021.3 mb 0.00 in0.0 mm 0.00 in0.0 mm 0.00 in0.0 mm
06:40 AM 73.2°F22.9°C 50.5°F10.3°C 45% 0.2 mph WSW0.3 kmh WSW -- 30.17 in1021.7 mb 0.00 in0.0 mm 0.00 in0.0 mm 0.00 in0.0 mm
06:38 AM 73.2°F22.9°C 50.5°F10.3°C 45% 0.2 mph W0.3 kmh W -- 30.17 in1021.7 mb 0.00 in0.0 mm 0.00 in0.0 mm 0.00 in0.0 mm
06:36 AM 73.2°F22.9°C 50.5°F10.3°C 45% 0.2 mph W0.3 kmh W -- 30.17 in1021.7 mb 0.00 in0.0 mm 0.00 in0.0 mm 0.00 in0.0 mm
06:34 AM 73.0°F22.8°C 50.4°F10.2°C 45% 0.2 mph W0.3 kmh W -- 30.17 in1021.7 mb 0.00 in0.0 mm 0.00 in0.0 mm 0.00 in0.0 mm
06:31 AM 73.0°F22.8°C 50.4°F10.2°C 45% 0.2 mph W0.3 kmh W -- 30.17 in1021.7 mb 0.00 in0.0 mm 0.00 in0.0 mm 0.00 in0.0 mm
06:29 AM 73.0°F22.8°C 51.1°F10.6°C 46% 0.2 mph S0.3 kmh S -- 30.16 in1021.3 mb 0.00 in0.0 mm 0.00 in0.0 mm 0.00 in0.0 mm
06:27 AM 72.9°F22.7°C 50.9°F10.5°C 46% 0.2 mph S0.3 kmh S -- 30.16 in1021.3 mb 0.00 in0.0 mm 0.00 in0.0 mm 0.00 in0.0 mm
06:24 AM 72.7°F22.6°C 50.7°F10.4°C 46% 0.2 mph SE0.3 kmh SE -- 30.16 in1021.3 mb 0.00 in0.0 mm 0.00 in0.0 mm 0.00 in0.0 mm
06:22 AM 72.3°F22.4°C 50.9°F10.5°C 47% 0.2 mph SE0.3 kmh SE -- 30.16 in1021.3 mb 0.00 in0.0 mm 0.00 in0.0 mm 0.00 in0.0 mm
06:20 AM 72.0°F22.2°C 50.7°F10.4°C 47% 0.2 mph SE0.3 kmh SE -- 30.16 in1021.3 mb 0.00 in0.0 mm 0.00 in0.0 mm 0.00 in0.0 mm
06:18 AM 71.8°F22.1°C 50.5°F10.3°C 47% 0.2 mph SE0.3 kmh SE -- 30.16 in1021.3 mb 0.00 in0.0 mm 0.00 in0.0 mm 0.00 in0.0 mm
06:16 AM 71.2°F21.8°C 50.5°F10.3°C 48% 0.4 mph SE0.6 kmh SE -- 30.16 in1021.3 mb 0.00 in0.0 mm 0.00 in0.0 mm 0.00 in0.0 mm
06:14 AM 70.9°F21.6°C 50.2°F10.1°C 48% 0.9 mph SE1.4 kmh SE 1.1 mph1.8 kmh 30.16 in1021.3 mb 0.00 in0.0 mm 0.00 in0.0 mm 0.00 in0.0 mm
06:12 AM 70.7°F21.5°C 50.0°F10.0°C 48% 1.3 mph SE2.1 kmh SE 1.3 mph2.1 kmh 30.16 in1021.3 mb 0.00 in0.0 mm 0.00 in0.0 mm 0.00 in0.0 mm
06:10 AM 70.5°F21.4°C 49.8°F9.9°C 48% 1.8 mph SE2.9 kmh SE 2.2 mph3.5 kmh 30.16 in1021.3 mb 0.00 in0.0 mm 0.00 in0.0 mm 0.00 in0.0 mm
06:07 AM 70.2°F21.2°C 49.6°F9.8°C 48% 2.2 mph SE3.5 kmh SE 2.5 mph4.0 kmh 30.16 in1021.3 mb 0.00 in0.0 mm 0.00 in0.0 mm 0.00 in0.0 mm
06:05 AM 69.8°F21.0°C 49.8°F9.9°C 49% 2.5 mph SSE4.0 kmh SSE 3.4 mph5.5 kmh 30.16 in1021.3 mb 0.00 in0.0 mm 0.00 in0.0 mm 0.00 in0.0 mm
06:03 AM 69.6°F20.9°C 49.6°F9.8°C 49% 2.5 mph SE4.0 kmh SE 3.1 mph5.0 kmh 30.16 in1021.3 mb 0.00 in0.0 mm 0.00 in0.0 mm 0.00 in0.0 mm
06:01 AM 69.6°F20.9°C 49.6°F9.8°C 49% 2.5 mph SSE4.0 kmh SSE 4.0 mph6.4 kmh 30.16 in1021.3 mb 0.00 in0.0 mm 0.00 in0.0 mm 0.00 in0.0 mm
05:58 AM 69.1°F20.6°C 49.1°F9.5°C 49% 2.2 mph SSE3.5 kmh SSE 2.9 mph4.7 kmh 30.16 in1021.3 mb 0.00 in0.0 mm 0.00 in0.0 mm 0.00 in0.0 mm
05:56 AM 68.9°F20.5°C 48.9°F9.4°C 49% 2.2 mph SE3.5 kmh SE 3.4 mph5.5 kmh 30.16 in1021.3 mb 0.00 in0.0 mm 0.00 in0.0 mm 0.00 in0.0 mm
05:54 AM 68.7°F20.4°C 48.7°F9.3°C 49% 2.0 mph SE3.2 kmh SE 2.5 mph4.0 kmh 30.16 in1021.3 mb 0.00 in0.0 mm 0.00 in0.0 mm 0.00 in0.0 mm
05:51 AM 68.5°F20.3°C 48.6°F9.2°C 49% 2.5 mph SSE4.0 kmh SSE 2.9 mph4.7 kmh 30.16 in1021.3 mb 0.00 in0.0 mm 0.00 in0.0 mm 0.00 in0.0 mm
05:49 AM 68.5°F20.3°C 48.6°F9.2°C 49% 2.2 mph SE3.5 kmh SE 2.9 mph4.7 kmh 30.16 in1021.3 mb 0.00 in0.0 mm 0.00 in0.0 mm 0.00 in0.0 mm
05:47 AM 68.5°F20.3°C 48.6°F9.2°C 49% 2.2 mph ESE3.5 kmh ESE 3.1 mph5.0 kmh 30.15 in1021.0 mb 0.00 in0.0 mm 0.00 in0.0 mm 0.00 in0.0 mm
05:45 AM 68.5°F20.3°C 48.6°F9.2°C 49% 2.0 mph ESE3.2 kmh ESE 3.6 mph5.8 kmh 30.15 in1021.0 mb 0.00 in0.0 mm 0.00 in0.0 mm 0.00 in0.0 mm
05:43 AM 68.4°F20.2°C 48.9°F9.4°C 50% 1.6 mph ESE2.6 kmh ESE 2.5 mph4.0 kmh 30.15 in1021.0 mb 0.00 in0.0 mm 0.00 in0.0 mm 0.00 in0.0 mm
05:41 AM 68.4°F20.2°C 48.9°F9.4°C 50% 1.1 mph SSE1.8 kmh SSE 2.2 mph3.5 kmh 30.15 in1021.0 mb 0.00 in0.0 mm 0.00 in0.0 mm 0.00 in0.0 mm
05:38 AM 68.2°F20.1°C 48.9°F9.4°C 50% 0.9 mph SSE1.4 kmh SSE 1.3 mph2.1 kmh 30.15 in1021.0 mb 0.00 in0.0 mm 0.00 in0.0 mm 0.00 in0.0 mm
05:36 AM 67.8°F19.9°C 48.6°F9.2°C 50% 1.1 mph SSE1.8 kmh SSE 1.1 mph1.8 kmh 30.15 in1021.0 mb 0.00 in0.0 mm 0.00 in0.0 mm 0.00 in0.0 mm
05:34 AM 67.6°F19.8°C 48.9°F9.4°C 51% 1.8 mph SSE2.9 kmh SSE 2.0 mph3.2 kmh 30.15 in1021.0 mb 0.00 in0.0 mm 0.00 in0.0 mm 0.00 in0.0 mm
05:32 AM 67.3°F19.6°C 48.6°F9.2°C 51% 1.8 mph SSE2.9 kmh SSE 2.0 mph3.2 kmh 30.15 in1021.0 mb 0.00 in0.0 mm 0.00 in0.0 mm 0.00 in0.0 mm
05:30 AM 66.9°F19.4°C 48.2°F9.0°C 51% 1.8 mph SSE2.9 kmh SSE 2.0 mph3.2 kmh 30.15 in1021.0 mb 0.00 in0.0 mm 0.00 in0.0 mm 0.00 in0.0 mm
05:28 AM 66.7°F19.3°C 48.0°F8.9°C 51% 2.2 mph S3.5 kmh S 2.9 mph4.7 kmh 30.15 in1021.0 mb 0.00 in0.0 mm 0.00 in0.0 mm 0.00 in0.0 mm
05:26 AM 66.7°F19.3°C 48.0°F8.9°C 51% 2.5 mph SSE4.0 kmh SSE 2.9 mph4.7 kmh 30.15 in1021.0 mb 0.00 in0.0 mm 0.00 in0.0 mm 0.00 in0.0 mm
05:23 AM 66.7°F19.3°C 48.0°F8.9°C 51% 2.7 mph SE4.3 kmh SE 3.4 mph5.5 kmh 30.15 in1021.0 mb 0.00 in0.0 mm 0.00 in0.0 mm 0.00 in0.0 mm
05:21 AM 66.7°F19.3°C 48.0°F8.9°C 51% 2.7 mph S4.3 kmh S 3.8 mph6.1 kmh 30.15 in1021.0 mb 0.00 in0.0 mm 0.00 in0.0 mm 0.00 in0.0 mm
05:19 AM 66.9°F19.4°C 48.2°F9.0°C 51% 2.7 mph S4.3 kmh S 4.3 mph6.9 kmh 30.15 in1021.0 mb 0.00 in0.0 mm 0.00 in0.0 mm 0.00 in0.0 mm
05:17 AM 66.9°F19.4°C 48.2°F9.0°C 51% 2.5 mph SSE4.0 kmh SSE 3.1 mph5.0 kmh 30.15 in1021.0 mb 0.00 in0.0 mm 0.00 in0.0 mm 0.00 in0.0 mm
05:14 AM 67.1°F19.5°C 47.8°F8.8°C 50% 2.2 mph ESE3.5 kmh ESE 5.1 mph8.2 kmh 30.14 in1020.7 mb 0.00 in0.0 mm 0.00 in0.0 mm 0.00 in0.0 mm
05:12 AM 67.1°F19.5°C 47.8°F8.8°C 50% 1.6 mph SSE2.6 kmh SSE 2.5 mph4.0 kmh 30.14 in1020.7 mb 0.00 in0.0 mm 0.00 in0.0 mm 0.00 in0.0 mm
05:10 AM 67.1°F19.5°C 47.8°F8.8°C 50% 1.1 mph SE1.8 kmh SE 2.0 mph3.2 kmh 30.14 in1020.7 mb 0.00 in0.0 mm 0.00 in0.0 mm 0.00 in0.0 mm
05:08 AM 67.1°F19.5°C 47.8°F8.8°C 50% 0.4 mph SE0.6 kmh SE 0.9 mph1.4 kmh 30.14 in1020.7 mb 0.00 in0.0 mm 0.00 in0.0 mm 0.00 in0.0 mm
05:06 AM 67.1°F19.5°C 47.8°F8.8°C 50% 0.7 mph SSE1.1 kmh SSE -- 30.14 in1020.7 mb 0.00 in0.0 mm 0.00 in0.0 mm 0.00 in0.0 mm
05:03 AM 67.1°F19.5°C 47.3°F8.5°C 49% 1.3 mph SSE2.1 kmh SSE 1.8 mph2.9 kmh 30.14 in1020.7 mb 0.00 in0.0 mm 0.00 in0.0 mm 0.00 in0.0 mm
05:01 AM 66.9°F19.4°C 47.1°F8.4°C 49% 1.3 mph S2.1 kmh S 1.6 mph2.6 kmh 30.14 in1020.7 mb 0.00 in0.0 mm 0.00 in0.0 mm 0.00 in0.0 mm
04:59 AM 66.9°F19.4°C 47.1°F8.4°C 49% 1.6 mph SSE2.6 kmh SSE 1.8 mph2.9 kmh 30.14 in1020.7 mb 0.00 in0.0 mm 0.00 in0.0 mm 0.00 in0.0 mm
04:57 AM 67.3°F19.6°C 47.5°F8.6°C 49% 1.8 mph SSE2.9 kmh SSE 2.0 mph3.2 kmh 30.14 in1020.7 mb 0.00 in0.0 mm 0.00 in0.0 mm 0.00 in0.0 mm
04:54 AM 67.5°F19.7°C 47.1°F8.4°C 48% 1.8 mph ESE2.9 kmh ESE 2.5 mph4.0 kmh 30.14 in1020.7 mb 0.00 in0.0 mm 0.00 in0.0 mm 0.00 in0.0 mm
04:52 AM 67.6°F19.8°C 47.3°F8.5°C 48% 1.8 mph SE2.9 kmh SE 2.5 mph4.0 kmh 30.14 in1020.7 mb 0.00 in0.0 mm 0.00 in0.0 mm 0.00 in0.0 mm
04:50 AM 67.8°F19.9°C 46.9°F8.3°C 47% 1.6 mph SSE2.6 kmh SSE 2.7 mph4.3 kmh 30.14 in1020.7 mb 0.00 in0.0 mm 0.00 in0.0 mm 0.00 in0.0 mm
04:48 AM 67.8°F19.9°C 46.9°F8.3°C 47% 1.6 mph SE2.6 kmh SE 2.0 mph3.2 kmh 30.14 in1020.7 mb 0.00 in0.0 mm 0.00 in0.0 mm 0.00 in0.0 mm
04:46 AM 67.8°F19.9°C 46.9°F8.3°C 47% 1.8 mph SE2.9 kmh SE 1.8 mph2.9 kmh 30.14 in1020.7 mb 0.00 in0.0 mm 0.00 in0.0 mm 0.00 in0.0 mm
04:43 AM 67.8°F19.9°C 46.9°F8.3°C 47% 2.0 mph SE3.2 kmh SE 2.5 mph4.0 kmh 30.14 in1020.7 mb 0.00 in0.0 mm 0.00 in0.0 mm 0.00 in0.0 mm
04:41 AM 67.8°F19.9°C 46.9°F8.3°C 47% 2.0 mph SE3.2 kmh SE 2.2 mph3.5 kmh 30.14 in1020.7 mb 0.00 in0.0 mm 0.00 in0.0 mm 0.00 in0.0 mm
04:39 AM 67.6°F19.8°C 46.8°F8.2°C 47% 1.8 mph SSE2.9 kmh SSE 2.5 mph4.0 kmh 30.14 in1020.7 mb 0.00 in0.0 mm 0.00 in0.0 mm 0.00 in0.0 mm
04:37 AM 67.6°F19.8°C 46.8°F8.2°C 47% 2.2 mph ESE3.5 kmh ESE 2.2 mph3.5 kmh 30.14 in1020.7 mb 0.00 in0.0 mm 0.00 in0.0 mm 0.00 in0.0 mm
04:34 AM 67.5°F19.7°C 46.6°F8.1°C 47% 2.2 mph SSE3.5 kmh SSE 2.5 mph4.0 kmh 30.14 in1020.7 mb 0.00 in0.0 mm 0.00 in0.0 mm 0.00 in0.0 mm
04:32 AM 67.3°F19.6°C 46.4°F8.0°C 47% 2.5 mph SE4.0 kmh SE 2.7 mph4.3 kmh 30.14 in1020.7 mb 0.00 in0.0 mm 0.00 in0.0 mm 0.00 in0.0 mm
04:30 AM 67.3°F19.6°C 46.9°F8.3°C 48% 2.7 mph SE4.3 kmh SE 3.1 mph5.0 kmh 30.14 in1020.7 mb 0.00 in0.0 mm 0.00 in0.0 mm 0.00 in0.0 mm
04:28 AM 67.3°F19.6°C 46.9°F8.3°C 48% 2.7 mph SSE4.3 kmh SSE 3.1 mph5.0 kmh 30.14 in1020.7 mb 0.00 in0.0 mm 0.00 in0.0 mm 0.00 in0.0 mm
04:25 AM 67.3°F19.6°C 46.9°F8.3°C 48% 2.7 mph S4.3 kmh S 3.4 mph5.5 kmh 30.14 in1020.7 mb 0.00 in0.0 mm 0.00 in0.0 mm 0.00 in0.0 mm
04:23 AM 67.3°F19.6°C 46.9°F8.3°C 48% 2.9 mph SE4.7 kmh SE 3.4 mph5.5 kmh 30.14 in1020.7 mb 0.00 in0.0 mm 0.00 in0.0 mm 0.00 in0.0 mm
04:21 AM 67.3°F19.6°C 46.9°F8.3°C 48% 2.9 mph SE4.7 kmh SE 3.6 mph5.8 kmh 30.14 in1020.7 mb 0.00 in0.0 mm 0.00 in0.0 mm 0.00 in0.0 mm
04:19 AM 67.3°F19.6°C 46.9°F8.3°C 48% 2.9 mph ESE4.7 kmh ESE 3.8 mph6.1 kmh 30.14 in1020.7 mb 0.00 in0.0 mm 0.00 in0.0 mm 0.00 in0.0 mm
04:17 AM 67.1°F19.5°C 46.8°F8.2°C 48% 2.9 mph SSE4.7 kmh SSE 3.8 mph6.1 kmh 30.14 in1020.7 mb 0.00 in0.0 mm 0.00 in0.0 mm 0.00 in0.0 mm
04:14 AM 67.1°F19.5°C 47.3°F8.5°C 49% 2.9 mph SE4.7 kmh SE 3.4 mph5.5 kmh 30.14 in1020.7 mb 0.00 in0.0 mm 0.00 in0.0 mm 0.00 in0.0 mm
04:12 AM 67.1°F19.5°C 47.3°F8.5°C 49% 2.9 mph SE4.7 kmh SE 3.8 mph6.1 kmh 30.13 in1020.3 mb 0.00 in0.0 mm 0.00 in0.0 mm 0.00 in0.0 mm
04:10 AM 66.9°F19.4°C 47.1°F8.4°C 49% 3.1 mph SSE5.0 kmh SSE 4.3 mph6.9 kmh 30.13 in1020.3 mb 0.00 in0.0 mm 0.00 in0.0 mm 0.00 in0.0 mm
04:08 AM 66.7°F19.3°C 46.9°F8.3°C 49% 2.9 mph SE4.7 kmh SE 2.9 mph4.7 kmh 30.14 in1020.7 mb 0.00 in0.0 mm 0.00 in0.0 mm 0.00 in0.0 mm
04:05 AM 66.9°F19.4°C 47.1°F8.4°C 49% 3.4 mph SE5.5 kmh SE 4.3 mph6.9 kmh 30.14 in1020.7 mb 0.00 in0.0 mm 0.00 in0.0 mm 0.00 in0.0 mm
04:03 AM 66.9°F19.4°C 47.1°F8.4°C 49% 3.6 mph ESE5.8 kmh ESE 4.0 mph6.4 kmh 30.14 in1020.7 mb 0.00 in0.0 mm 0.00 in0.0 mm 0.00 in0.0 mm
04:01 AM 66.9°F19.4°C 47.1°F8.4°C 49% 3.4 mph SSE5.5 kmh SSE 4.0 mph6.4 kmh 30.13 in1020.3 mb 0.00 in0.0 mm 0.00 in0.0 mm 0.00 in0.0 mm
03:59 AM 66.9°F19.4°C 47.1°F8.4°C 49% 3.6 mph ESE5.8 kmh ESE 5.4 mph8.7 kmh 30.13 in1020.3 mb 0.00 in0.0 mm 0.00 in0.0 mm 0.00 in0.0 mm
03:57 AM 66.9°F19.4°C 47.1°F8.4°C 49% 2.9 mph SE4.7 kmh SE 4.7 mph7.6 kmh 30.13 in1020.3 mb 0.00 in0.0 mm 0.00 in0.0 mm 0.00 in0.0 mm
03:55 AM 66.9°F19.4°C 47.1°F8.4°C 49% 2.9 mph SSE4.7 kmh SSE 3.8 mph6.1 kmh 30.14 in1020.7 mb 0.00 in0.0 mm 0.00 in0.0 mm 0.00 in0.0 mm
03:52 AM 66.7°F19.3°C 46.9°F8.3°C 49% 2.9 mph S4.7 kmh S 4.0 mph6.4 kmh 30.14 in1020.7 mb 0.00 in0.0 mm 0.00 in0.0 mm 0.00 in0.0 mm
03:50 AM 66.7°F19.3°C 46.9°F8.3°C 49% 2.7 mph SSE4.3 kmh SSE 3.4 mph5.5 kmh 30.14 in1020.7 mb 0.00 in0.0 mm 0.00 in0.0 mm 0.00 in0.0 mm
03:48 AM 66.6°F19.2°C 47.3°F8.5°C 50% 2.5 mph SSE4.0 kmh SSE 2.9 mph4.7 kmh 30.14 in1020.7 mb 0.00 in0.0 mm 0.00 in0.0 mm 0.00 in0.0 mm
03:46 AM 66.6°F19.2°C 47.3°F8.5°C 50% 2.0 mph SE3.2 kmh SE 2.7 mph4.3 kmh 30.13 in1020.3 mb 0.00 in0.0 mm 0.00 in0.0 mm 0.00 in0.0 mm
03:44 AM 66.6°F19.2°C 47.3°F8.5°C 50% 1.8 mph SSE2.9 kmh SSE 3.6 mph5.8 kmh 30.13 in1020.3 mb 0.00 in0.0 mm 0.00 in0.0 mm 0.00 in0.0 mm
03:42 AM 66.7°F19.3°C 47.5°F8.6°C 50% 1.8 mph SE2.9 kmh SE 2.2 mph3.5 kmh 30.14 in1020.7 mb 0.00 in0.0 mm 0.00 in0.0 mm 0.00 in0.0 mm
03:40 AM 66.7°F19.3°C 48.0°F8.9°C 51% 1.8 mph SE2.9 kmh SE 2.5 mph4.0 kmh 30.14 in1020.7 mb 0.00 in0.0 mm 0.00 in0.0 mm 0.00 in0.0 mm
03:37 AM 66.9°F19.4°C 48.2°F9.0°C 51% 2.0 mph SE3.2 kmh SE 2.5 mph4.0 kmh 30.14 in1020.7 mb 0.00 in0.0 mm 0.00 in0.0 mm 0.00 in0.0 mm
03:35 AM 66.9°F19.4°C 48.2°F9.0°C 51% 2.2 mph SE3.5 kmh SE 3.4 mph5.5 kmh 30.14 in1020.7 mb 0.00 in0.0 mm 0.00 in0.0 mm 0.00 in0.0 mm
03:33 AM 67.3°F19.6°C 48.6°F9.2°C 51% 2.2 mph ESE3.5 kmh ESE 3.1 mph5.0 kmh 30.14 in1020.7 mb 0.00 in0.0 mm 0.00 in0.0 mm 0.00 in0.0 mm
03:31 AM 67.6°F19.8°C 48.9°F9.4°C 51% 2.2 mph ESE3.5 kmh ESE 4.0 mph6.4 kmh 30.14 in1020.7 mb 0.00 in0.0 mm 0.00 in0.0 mm 0.00 in0.0 mm
03:29 AM 67.6°F19.8°C 48.9°F9.4°C 51% 1.6 mph SE2.6 kmh SE 3.6 mph5.8 kmh 30.14 in1020.7 mb 0.00 in0.0 mm 0.00 in0.0 mm 0.00 in0.0 mm
03:26 AM 67.6°F19.8°C 48.9°F9.4°C 51% 1.1 mph SSE1.8 kmh SSE 1.3 mph2.1 kmh 30.14 in1020.7 mb 0.00 in0.0 mm 0.00 in0.0 mm 0.00 in0.0 mm
03:24 AM 67.6°F19.8°C 48.9°F9.4°C 51% 1.6 mph SSE2.6 kmh SSE 1.6 mph2.6 kmh 30.14 in1020.7 mb 0.00 in0.0 mm 0.00 in0.0 mm 0.00 in0.0 mm
03:22 AM 67.8°F19.9°C 49.1°F9.5°C 51% 1.8 mph SE2.9 kmh SE 3.6 mph5.8 kmh 30.14 in1020.7 mb 0.00 in0.0 mm 0.00 in0.0 mm 0.00 in0.0 mm
03:20 AM 67.8°F19.9°C 49.1°F9.5°C 51% 1.3 mph ESE2.1 kmh ESE 1.8 mph2.9 kmh 30.14 in1020.7 mb 0.00 in0.0 mm 0.00 in0.0 mm 0.00 in0.0 mm
03:17 AM 67.6°F19.8°C 48.9°F9.4°C 51% 0.7 mph SSE1.1 kmh SSE 1.6 mph2.6 kmh 30.14 in1020.7 mb 0.00 in0.0 mm 0.00 in0.0 mm 0.00 in0.0 mm
03:15 AM 67.6°F19.8°C 48.9°F9.4°C 51% 0.4 mph SSE0.6 kmh SSE -- 30.14 in1020.7 mb 0.00 in0.0 mm 0.00 in0.0 mm 0.00 in0.0 mm
03:13 AM 67.6°F19.8°C 48.9°F9.4°C 51% 0.7 mph SSE1.1 kmh SSE 1.3 mph2.1 kmh 30.14 in1020.7 mb 0.00 in0.0 mm 0.00 in0.0 mm 0.00 in0.0 mm
03:11 AM 67.5°F19.7°C 48.7°F9.3°C 51% 0.9 mph SE1.4 kmh SE 1.1 mph1.8 kmh 30.14 in1020.7 mb 0.00 in0.0 mm 0.00 in0.0 mm 0.00 in0.0 mm
03:09 AM 67.6°F19.8°C 48.9°F9.4°C 51% 0.9 mph SE1.4 kmh SE 1.6 mph2.6 kmh 30.14 in1020.7 mb 0.00 in0.0 mm 0.00 in0.0 mm 0.00 in0.0 mm
03:06 AM 67.6°F19.8°C 48.9°F9.4°C 51% 1.1 mph SE1.8 kmh SE -- 30.14 in1020.7 mb 0.00 in0.0 mm 0.00 in0.0 mm 0.00 in0.0 mm
03:04 AM 67.6°F19.8°C 48.9°F9.4°C 51% 2.0 mph SE3.2 kmh SE 2.5 mph4.0 kmh 30.14 in1020.7 mb 0.00 in0.0 mm 0.00 in0.0 mm 0.00 in0.0 mm
03:02 AM 67.5°F19.7°C 48.7°F9.3°C 51% 2.0 mph SE3.2 kmh SE 2.0 mph3.2 kmh 30.13 in1020.3 mb 0.00 in0.0 mm 0.00 in0.0 mm 0.00 in0.0 mm
03:00 AM 67.5°F19.7°C 48.7°F9.3°C 51% 2.2 mph SE3.5 kmh SE 2.7 mph4.3 kmh 30.13 in1020.3 mb 0.00 in0.0 mm 0.00 in0.0 mm 0.00 in0.0 mm
02:57 AM 67.5°F19.7°C 48.7°F9.3°C 51% 2.5 mph SE4.0 kmh SE 2.9 mph4.7 kmh 30.14 in1020.7 mb 0.00 in0.0 mm 0.00 in0.0 mm 0.00 in0.0 mm
02:55 AM 67.6°F19.8°C 48.9°F9.4°C 51% 2.9 mph SE4.7 kmh SE 3.8 mph6.1 kmh 30.14 in1020.7 mb 0.00 in0.0 mm 0.00 in0.0 mm 0.00 in0.0 mm
02:53 AM 67.8°F19.9°C 49.1°F9.5°C 51% 2.9 mph SE4.7 kmh SE 4.5 mph7.2 kmh 30.13 in1020.3 mb 0.00 in0.0 mm 0.00 in0.0 mm 0.00 in0.0 mm
02:51 AM 68.0°F20.0°C 49.3°F9.6°C 51% 2.7 mph SE4.3 kmh SE 3.8 mph6.1 kmh 30.13 in1020.3 mb 0.00 in0.0 mm 0.00 in0.0 mm 0.00 in0.0 mm
02:49 AM 68.4°F20.2°C 49.5°F9.7°C 51% 2.5 mph SE4.0 kmh SE 3.8 mph6.1 kmh 30.13 in1020.3 mb 0.00 in0.0 mm 0.00 in0.0 mm 0.00 in0.0 mm
02:46 AM 68.5°F20.3°C 49.6°F9.8°C 51% 2.0 mph SE3.2 kmh SE 2.9 mph4.7 kmh 30.14 in1020.7 mb 0.00 in0.0 mm 0.00 in0.0 mm 0.00 in0.0 mm
02:44 AM 68.5°F20.3°C 49.6°F9.8°C 51% 1.6 mph SSE2.6 kmh SSE 2.0 mph3.2 kmh 30.13 in1020.3 mb 0.00 in0.0 mm 0.00 in0.0 mm 0.00 in0.0 mm
02:42 AM 68.5°F20.3°C 50.2°F10.1°C 52% 1.3 mph SSE2.1 kmh SSE 2.0 mph3.2 kmh 30.13 in1020.3 mb 0.00 in0.0 mm 0.00 in0.0 mm 0.00 in0.0 mm
02:40 AM 68.4°F20.2°C 50.0°F10.0°C 52% 1.3 mph SSE2.1 kmh SSE 2.0 mph3.2 kmh 30.13 in1020.3 mb 0.00 in0.0 mm 0.00 in0.0 mm 0.00 in0.0 mm
02:37 AM 68.4°F20.2°C 50.0°F10.0°C 52% 1.3 mph SSE2.1 kmh SSE 1.3 mph2.1 kmh 30.13 in1020.3 mb 0.00 in0.0 mm 0.00 in0.0 mm 0.00 in0.0 mm
02:35 AM 68.4°F20.2°C 50.0°F10.0°C 52% 1.6 mph SSE2.6 kmh SSE 2.0 mph3.2 kmh 30.14 in1020.7 mb 0.00 in0.0 mm 0.00 in0.0 mm 0.00 in0.0 mm
02:33 AM 68.4°F20.2°C 50.0°F10.0°C 52% 1.3 mph SSE2.1 kmh SSE 1.3 mph2.1 kmh 30.13 in1020.3 mb 0.00 in0.0 mm 0.00 in0.0 mm 0.00 in0.0 mm
02:31 AM 68.4°F20.2°C 50.0°F10.0°C 52% 2.0 mph SSE3.2 kmh SSE 2.2 mph3.5 kmh 30.13 in1020.3 mb 0.00 in0.0 mm 0.00 in0.0 mm 0.00 in0.0 mm
02:29 AM 68.2°F20.1°C 49.8°F9.9°C 52% 1.8 mph SSE2.9 kmh SSE 2.5 mph4.0 kmh 30.14 in1020.7 mb 0.00 in0.0 mm 0.00 in0.0 mm 0.00 in0.0 mm
02:27 AM 68.2°F20.1°C 50.4°F10.2°C 53% 1.8 mph SSE2.9 kmh SSE 2.2 mph3.5 kmh 30.14 in1020.7 mb 0.00 in0.0 mm 0.00 in0.0 mm 0.00 in0.0 mm
02:25 AM 68.2°F20.1°C 50.4°F10.2°C 53% 1.8 mph S2.9 kmh S 2.0 mph3.2 kmh 30.13 in1020.3 mb 0.00 in0.0 mm 0.00 in0.0 mm 0.00 in0.0 mm
02:23 AM 68.2°F20.1°C 50.4°F10.2°C 53% 1.6 mph SSE2.6 kmh SSE 2.2 mph3.5 kmh 30.14 in1020.7 mb 0.00 in0.0 mm 0.00 in0.0 mm 0.00 in0.0 mm
02:20 AM 68.0°F20.0°C 50.2°F10.1°C 53% 1.3 mph SE2.1 kmh SE 2.0 mph3.2 kmh 30.14 in1020.7 mb 0.00 in0.0 mm 0.00 in0.0 mm 0.00 in0.0 mm
02:18 AM 67.8°F19.9°C 50.0°F10.0°C 53% 1.3 mph SSE2.1 kmh SSE 2.2 mph3.5 kmh 30.14 in1020.7 mb 0.00 in0.0 mm 0.00 in0.0 mm 0.00 in0.0 mm
02:16 AM 67.8°F19.9°C 50.0°F10.0°C 53% 1.6 mph S2.6 kmh S 1.8 mph2.9 kmh 30.14 in1020.7 mb 0.00 in0.0 mm 0.00 in0.0 mm 0.00 in0.0 mm
02:14 AM 67.8°F19.9°C 50.5°F10.3°C 54% 1.8 mph SSE2.9 kmh SSE 2.0 mph3.2 kmh 30.14 in1020.7 mb 0.00 in0.0 mm 0.00 in0.0 mm 0.00 in0.0 mm
02:11 AM 67.8°F19.9°C 50.5°F10.3°C 54% 1.6 mph SE2.6 kmh SE 2.7 mph4.3 kmh 30.14 in1020.7 mb 0.00 in0.0 mm 0.00 in0.0 mm 0.00 in0.0 mm
02:09 AM 68.2°F20.1°C 50.4°F10.2°C 53% 1.1 mph ESE1.8 kmh ESE 2.9 mph4.7 kmh 30.14 in1020.7 mb 0.00 in0.0 mm 0.00 in0.0 mm 0.00 in0.0 mm
02:07 AM 68.2°F20.1°C 50.4°F10.2°C 53% 0.4 mph ENE0.6 kmh ENE 1.1 mph1.8 kmh 30.14 in1020.7 mb 0.00 in0.0 mm 0.00 in0.0 mm 0.00 in0.0 mm
02:05 AM 68.4°F20.2°C 50.5°F10.3°C 53% 1.6 mph S2.6 kmh S -- 30.14 in1020.7 mb 0.00 in0.0 mm 0.00 in0.0 mm 0.00 in0.0 mm
01:59 AM 68.4°F20.2°C 51.1°F10.6°C 54% 1.6 mph SE2.6 kmh SE 2.0 mph3.2 kmh 30.13 in1020.3 mb 0.00 in0.0 mm 0.00 in0.0 mm 0.00 in0.0 mm
01:57 AM 68.2°F20.1°C 50.9°F10.5°C 54% 1.8 mph SSE2.9 kmh SSE 1.8 mph2.9 kmh 30.14 in1020.7 mb 0.00 in0.0 mm 0.00 in0.0 mm 0.00 in0.0 mm
01:54 AM 68.2°F20.1°C 50.9°F10.5°C 54% 2.2 mph SSE3.5 kmh SSE 2.7 mph4.3 kmh 30.14 in1020.7 mb 0.00 in0.0 mm 0.00 in0.0 mm 0.00 in0.0 mm
01:52 AM 67.8°F19.9°C 51.1°F10.6°C 55% 2.7 mph SSE4.3 kmh SSE 3.6 mph5.8 kmh 30.14 in1020.7 mb 0.00 in0.0 mm 0.00 in0.0 mm 0.00 in0.0 mm
01:50 AM 67.8°F19.9°C 51.1°F10.6°C 55% 2.7 mph ESE4.3 kmh ESE 3.6 mph5.8 kmh 30.14 in1020.7 mb 0.00 in0.0 mm 0.00 in0.0 mm 0.00 in0.0 mm
01:48 AM 67.6°F19.8°C 50.9°F10.5°C 55% 2.7 mph SE4.3 kmh SE 4.3 mph6.9 kmh 30.14 in1020.7 mb 0.00 in0.0 mm 0.00 in0.0 mm 0.00 in0.0 mm
01:45 AM 67.6°F19.8°C 50.9°F10.5°C 55% 2.7 mph SE4.3 kmh SE 2.9 mph4.7 kmh 30.14 in1020.7 mb 0.00 in0.0 mm 0.00 in0.0 mm 0.00 in0.0 mm
01:43 AM 67.5°F19.7°C 50.7°F10.4°C 55% 2.9 mph ESE4.7 kmh ESE 2.5 mph4.0 kmh 30.14 in1020.7 mb 0.00 in0.0 mm 0.00 in0.0 mm 0.00 in0.0 mm
01:41 AM 67.3°F19.6°C 50.5°F10.3°C 55% 3.4 mph E5.5 kmh E 5.1 mph8.2 kmh 30.14 in1020.7 mb 0.00 in0.0 mm 0.00 in0.0 mm 0.00 in0.0 mm
01:39 AM 67.3°F19.6°C 50.5°F10.3°C 55% 3.1 mph SSE5.0 kmh SSE 4.3 mph6.9 kmh 30.14 in1020.7 mb 0.00 in0.0 mm 0.00 in0.0 mm 0.00 in0.0 mm
01:36 AM 67.3°F19.6°C 50.5°F10.3°C 55% 3.4 mph SSE5.5 kmh SSE 4.7 mph7.6 kmh 30.15 in1021.0 mb 0.00 in0.0 mm 0.00 in0.0 mm 0.00 in0.0 mm
01:34 AM 67.3°F19.6°C 50.5°F10.3°C 55% 3.6 mph ESE5.8 kmh ESE 4.7 mph7.6 kmh 30.15 in1021.0 mb 0.00 in0.0 mm 0.00 in0.0 mm 0.00 in0.0 mm
01:32 AM 67.6°F19.8°C 50.9°F10.5°C 55% 3.8 mph SE6.1 kmh SE 5.1 mph8.2 kmh 30.14 in1020.7 mb 0.00 in0.0 mm 0.00 in0.0 mm 0.00 in0.0 mm
01:30 AM 67.8°F19.9°C 51.1°F10.6°C 55% 3.6 mph ESE5.8 kmh ESE 4.5 mph7.2 kmh 30.15 in1021.0 mb 0.00 in0.0 mm 0.00 in0.0 mm 0.00 in0.0 mm
01:27 AM 68.0°F20.0°C 50.7°F10.4°C 54% 4.0 mph ESE6.4 kmh ESE 5.4 mph8.7 kmh 30.15 in1021.0 mb 0.00 in0.0 mm 0.00 in0.0 mm 0.00 in0.0 mm
01:25 AM 68.2°F20.1°C 50.9°F10.5°C 54% 3.1 mph ESE5.0 kmh ESE 5.1 mph8.2 kmh 30.14 in1020.7 mb 0.00 in0.0 mm 0.00 in0.0 mm 0.00 in0.0 mm
01:23 AM 68.5°F20.3°C 51.3°F10.7°C 54% 2.2 mph SSE3.5 kmh SSE 2.7 mph4.3 kmh 30.15 in1021.0 mb 0.00 in0.0 mm 0.00 in0.0 mm 0.00 in0.0 mm
01:21 AM 68.7°F20.4°C 51.4°F10.8°C 54% 2.2 mph ESE3.5 kmh ESE 3.6 mph5.8 kmh 30.15 in1021.0 mb 0.00 in0.0 mm 0.00 in0.0 mm 0.00 in0.0 mm
01:19 AM 68.7°F20.4°C 50.9°F10.5°C 53% 2.0 mph SSE3.2 kmh SSE 2.9 mph4.7 kmh 30.14 in1020.7 mb 0.00 in0.0 mm 0.00 in0.0 mm 0.00 in0.0 mm
01:16 AM 68.7°F20.4°C 50.9°F10.5°C 53% 1.8 mph SSE2.9 kmh SSE 2.5 mph4.0 kmh 30.15 in1021.0 mb 0.00 in0.0 mm 0.00 in0.0 mm 0.00 in0.0 mm
01:14 AM 68.9°F20.5°C 51.1°F10.6°C 53% 1.3 mph ESE2.1 kmh ESE 3.4 mph5.5 kmh 30.14 in1020.7 mb 0.00 in0.0 mm 0.00 in0.0 mm 0.00 in0.0 mm
01:12 AM 69.1°F20.6°C 50.7°F10.4°C 52% 0.9 mph S1.4 kmh S 1.8 mph2.9 kmh 30.14 in1020.7 mb 0.00 in0.0 mm 0.00 in0.0 mm 0.00 in0.0 mm
01:10 AM 69.1°F20.6°C 50.7°F10.4°C 52% 0.9 mph ESE1.4 kmh ESE 1.1 mph1.8 kmh 30.14 in1020.7 mb 0.00 in0.0 mm 0.00 in0.0 mm 0.00 in0.0 mm
01:08 AM 69.1°F20.6°C 50.7°F10.4°C 52% 1.1 mph SSE1.8 kmh SSE 1.3 mph2.1 kmh 30.15 in1021.0 mb 0.00 in0.0 mm 0.00 in0.0 mm 0.00 in0.0 mm
01:06 AM 69.4°F20.8°C 51.1°F10.6°C 52% 1.6 mph SE2.6 kmh SE 3.6 mph5.8 kmh 30.14 in1020.7 mb 0.00 in0.0 mm 0.00 in0.0 mm 0.00 in0.0 mm
01:04 AM 69.6°F20.9°C 50.7°F10.4°C 51% 0.7 mph ESE1.1 kmh ESE 2.0 mph3.2 kmh 30.15 in1021.0 mb 0.00 in0.0 mm 0.00 in0.0 mm 0.00 in0.0 mm
01:01 AM 69.6°F20.9°C 50.7°F10.4°C 51% 0.4 mph S0.6 kmh S 0.9 mph1.4 kmh 30.14 in1020.7 mb 0.00 in0.0 mm 0.00 in0.0 mm 0.00 in0.0 mm
12:59 AM 69.3°F20.7°C 50.9°F10.5°C 52% 0.7 mph S1.1 kmh S 1.6 mph2.6 kmh 30.14 in1020.7 mb 0.00 in0.0 mm 0.00 in0.0 mm 0.00 in0.0 mm
12:57 AM 68.9°F20.5°C 50.5°F10.3°C 52% 0.7 mph SSE1.1 kmh SSE 1.3 mph2.1 kmh 30.15 in1021.0 mb 0.00 in0.0 mm 0.00 in0.0 mm 0.00 in0.0 mm
12:55 AM 68.7°F20.4°C 50.4°F10.2°C 52% 0.4 mph S0.6 kmh S 0.9 mph1.4 kmh 30.15 in1021.0 mb 0.00 in0.0 mm 0.00 in0.0 mm 0.00 in0.0 mm
12:52 AM 68.7°F20.4°C 50.9°F10.5°C 53% 0.9 mph S1.4 kmh S 1.3 mph2.1 kmh 30.15 in1021.0 mb 0.00 in0.0 mm 0.00 in0.0 mm 0.00 in0.0 mm
12:50 AM 68.9°F20.5°C 51.1°F10.6°C 53% 1.3 mph SSE2.1 kmh SSE 2.2 mph3.5 kmh 30.15 in1021.0 mb 0.00 in0.0 mm 0.00 in0.0 mm 0.00 in0.0 mm
12:48 AM 68.9°F20.5°C 51.1°F10.6°C 53% 1.8 mph SE2.9 kmh SE 2.5 mph4.0 kmh 30.14 in1020.7 mb 0.00 in0.0 mm 0.00 in0.0 mm 0.00 in0.0 mm
12:46 AM 69.1°F20.6°C 51.3°F10.7°C 53% 1.3 mph E2.1 kmh E 2.0 mph3.2 kmh 30.15 in1021.0 mb 0.00 in0.0 mm 0.00 in0.0 mm 0.00 in0.0 mm
12:44 AM 69.3°F20.7°C 50.9°F10.5°C 52% 1.6 mph SSE2.6 kmh SSE 2.7 mph4.3 kmh 30.15 in1021.0 mb 0.00 in0.0 mm 0.00 in0.0 mm 0.00 in0.0 mm
12:41 AM 69.6°F20.9°C 51.3°F10.7°C 52% 2.0 mph ESE3.2 kmh ESE 2.7 mph4.3 kmh 30.15 in1021.0 mb 0.00 in0.0 mm 0.00 in0.0 mm 0.00 in0.0 mm
12:39 AM 69.6°F20.9°C 51.3°F10.7°C 52% 1.6 mph SE2.6 kmh SE 3.4 mph5.5 kmh 30.15 in1021.0 mb 0.00 in0.0 mm 0.00 in0.0 mm 0.00 in0.0 mm
12:37 AM 69.6°F20.9°C 51.3°F10.7°C 52% 0.9 mph SSE1.4 kmh SSE 1.8 mph2.9 kmh 30.15 in1021.0 mb 0.00 in0.0 mm 0.00 in0.0 mm 0.00 in0.0 mm
12:35 AM 69.6°F20.9°C 51.3°F10.7°C 52% 1.3 mph S2.1 kmh S 2.5 mph4.0 kmh 30.15 in1021.0 mb 0.00 in0.0 mm 0.00 in0.0 mm 0.00 in0.0 mm
12:33 AM 69.6°F20.9°C 51.3°F10.7°C 52% 1.3 mph SE2.1 kmh SE 2.2 mph3.5 kmh 30.15 in1021.0 mb 0.00 in0.0 mm 0.00 in0.0 mm 0.00 in0.0 mm
12:30 AM 69.6°F20.9°C 51.3°F10.7°C 52% 1.3 mph SSE2.1 kmh SSE 2.5 mph4.0 kmh 30.15 in1021.0 mb 0.00 in0.0 mm 0.00 in0.0 mm 0.00 in0.0 mm
12:28 AM 69.4°F20.8°C 51.1°F10.6°C 52% 1.6 mph ESE2.6 kmh ESE 2.9 mph4.7 kmh 30.15 in1021.0 mb 0.00 in0.0 mm 0.00 in0.0 mm 0.00 in0.0 mm
12:26 AM 69.6°F20.9°C 51.3°F10.7°C 52% 1.3 mph ESE2.1 kmh ESE 2.2 mph3.5 kmh 30.15 in1021.0 mb 0.00 in0.0 mm 0.00 in0.0 mm 0.00 in0.0 mm
12:24 AM 69.6°F20.9°C 51.3°F10.7°C 52% 1.3 mph SE2.1 kmh SE 2.5 mph4.0 kmh 30.15 in1021.0 mb 0.00 in0.0 mm 0.00 in0.0 mm 0.00 in0.0 mm
12:22 AM 69.6°F20.9°C 51.3°F10.7°C 52% 1.1 mph SE1.8 kmh SE 2.2 mph3.5 kmh 30.15 in1021.0 mb 0.00 in0.0 mm 0.00 in0.0 mm 0.00 in0.0 mm
12:19 AM 69.6°F20.9°C 51.3°F10.7°C 52% 0.7 mph SSE1.1 kmh SSE 2.2 mph3.5 kmh 30.15 in1021.0 mb 0.00 in0.0 mm 0.00 in0.0 mm 0.00 in0.0 mm
12:17 AM 69.6°F20.9°C 51.3°F10.7°C 52% 0.4 mph SSW0.6 kmh SSW 1.1 mph1.8 kmh 30.15 in1021.0 mb 0.00 in0.0 mm 0.00 in0.0 mm 0.00 in0.0 mm
12:15 AM 69.6°F20.9°C 51.3°F10.7°C 52% 0.4 mph S0.6 kmh S 1.6 mph2.6 kmh 30.15 in1021.0 mb 0.00 in0.0 mm 0.00 in0.0 mm 0.00 in0.0 mm
12:12 AM 69.4°F20.8°C 51.1°F10.6°C 52% 0.4 mph S0.6 kmh S 1.6 mph2.6 kmh 30.15 in1021.0 mb 0.00 in0.0 mm 0.00 in0.0 mm 0.00 in0.0 mm
12:10 AM 69.4°F20.8°C 51.1°F10.6°C 52% 0.2 mph S0.3 kmh S -- 30.15 in1021.0 mb 0.00 in0.0 mm 0.00 in0.0 mm 0.00 in0.0 mm
12:08 AM 69.4°F20.8°C 51.1°F10.6°C 52% 0.2 mph SSE0.3 kmh SSE -- 30.15 in1021.0 mb 0.00 in0.0 mm 0.00 in0.0 mm 0.00 in0.0 mm
12:06 AM 69.4°F20.8°C 51.1°F10.6°C 52% 0.2 mph S0.3 kmh S -- 30.15 in1021.0 mb 0.00 in0.0 mm 0.00 in0.0 mm 0.00 in0.0 mm
12:04 AM 69.6°F20.9°C 51.3°F10.7°C 52% 0.4 mph S0.6 kmh S 0.9 mph1.4 kmh 30.15 in1021.0 mb 0.00 in0.0 mm 0.00 in0.0 mm 0.00 in0.0 mm
12:01 AM 69.6°F20.9°C 51.3°F10.7°C 52% 0.4 mph SE0.6 kmh SE 0.9 mph1.4 kmh 30.15 in1021.0 mb 0.00 in0.0 mm 0.00 in0.0 mm 0.00 in0.0 mm